Terminal Aerodrome Forecast
Issued by NWS

Home | Current Version | Previous Version | Text Only | Print | Product List | Glossary On
Versions: 1 2 3 4 5 6 7 8 9 10 11 12 13 14 15 16
000
FTUS45 KABQ 202300
TAFTCC
TAF
KTCC 202336Z 2100/2124 15007KT P6SM VCTS SCT050CB BKN080
      TEMPO 2100/2102 VRB15G25KT OVC050CB
     FM210200 VRB06KT P6SM VCSH SCT050 BKN090
     FM210600 21006KT P6SM BKN040 BKN100
     FM211000 23006KT P6SM OVC015
     FM211500 21012KT P6SM SCT030 BKN060
     FM212000 19015KT P6SM VCTS BKN060CB BKN100=

USA.gov is the U.S. government's official web portal to all federal, state and local government web resources and services.